Time;durP1;ratioP1;P1;durP2;ratioP2;P2;SDS_P1;SDS_P2;PMS_P1;PMS_P2;Temp;Humidity;BMP_temperature;BMP_pressure;BME280_temperature;BME280_humidity;BME280_pressure;Samples;Min_cycle;Max_cycle;Signal;HPM_P1;HPM_P2
2022/10/14 00:02:04;;;;;;;12.73;5.25;;;;;;;6.58;100.00;100723.28;5042009;28;20029;-46
2022/10/14 00:04:29;;;;;;;5.78;3.25;;;;;;;6.57;100.00;100719.00;5055996;28;20040;-50
2022/10/14 00:06:55;;;;;;;5.65;3.88;;;;;;;6.58;100.00;100718.81;5049776;28;20394;-50
2022/10/14 00:09:21;;;;;;;4.82;3.38;;;;;;;6.58;100.00;100713.56;5045443;28;20391;-46
2022/10/14 00:11:46;;;;;;;8.30;4.38;;;;;;;6.60;100.00;100713.41;5038659;28;20025;-48
2022/10/14 00:14:15;;;;;;;8.05;4.38;;;;;;;6.64;100.00;100709.50;5042974;28;20041;-45
2022/10/14 00:16:41;;;;;;;8.85;4.35;;;;;;;6.64;100.00;100715.56;5044482;28;20029;-46
2022/10/14 00:19:07;;;;;;;6.50;2.90;;;;;;;6.64;100.00;100707.66;5047109;28;20035;-49
2022/10/14 00:21:34;;;;;;;7.18;4.57;;;;;;;6.64;100.00;100705.03;5043063;28;20029;-46
2022/10/14 00:23:59;;;;;;;6.28;3.13;;;;;;;6.64;100.00;100707.66;5048100;28;20514;-46
2022/10/14 00:26:28;;;;;;;10.85;4.18;;;;;;;6.66;100.00;100710.13;5038654;28;20057;-50
2022/10/14 00:28:54;;;;;;;6.57;2.92;;;;;;;6.65;100.00;100722.47;5043056;28;20103;-47
2022/10/14 00:31:20;;;;;;;11.27;4.07;;;;;;;6.66;100.00;100725.94;5044628;28;20021;-46
2022/10/14 00:33:45;;;;;;;11.05;4.53;;;;;;;6.68;100.00;100721.34;5036168;28;20071;-48
2022/10/14 00:36:14;;;;;;;7.18;3.80;;;;;;;6.71;100.00;100721.88;5044459;28;20029;-47
2022/10/14 00:38:40;;;;;;;12.35;4.60;;;;;;;6.71;100.00;100707.84;5045641;28;20108;-47
2022/10/14 00:41:09;;;;;;;7.40;3.22;;;;;;;6.73;100.00;100706.69;5044147;28;20440;-46
2022/10/14 00:43:54;;;;;;;8.43;3.00;;;;;;;6.76;100.00;100708.19;5044986;28;20033;-48
2022/10/14 00:46:19;;;;;;;13.48;3.78;;;;;;;6.74;100.00;100711.00;5044821;28;20397;-47
2022/10/14 00:48:45;;;;;;;12.73;2.90;;;;;;;6.73;100.00;100719.06;5038288;28;20034;-48
2022/10/14 00:51:10;;;;;;;6.55;3.95;;;;;;;6.74;100.00;100716.28;5039991;28;20021;-48
2022/10/14 00:53:41;;;;;;;9.82;3.00;;;;;;;6.73;100.00;100709.31;5039122;28;20053;-46
2022/10/14 00:56:08;;;;;;;9.43;2.73;;;;;;;6.71;100.00;100699.94;5045598;28;20037;-49
2022/10/14 00:58:34;;;;;;;6.32;3.10;;;;;;;6.70;100.00;100693.03;5036370;28;20040;-50
2022/10/14 01:00:59;;;;;;;10.68;2.80;;;;;;;6.69;100.00;100694.84;5040715;28;20017;-47
2022/10/14 01:03:24;;;;;;;9.52;3.70;;;;;;;6.68;100.00;100700.25;5038696;28;20391;-47
2022/10/14 01:06:06;;;;;;;10.27;4.65;;;;;;;6.68;100.00;100703.72;5048134;28;20040;-48
2022/10/14 01:08:41;;;;;;;11.18;4.78;;;;;;;6.68;100.00;100702.91;5042067;28;20118;-46
2022/10/14 01:11:15;;;;;;;12.13;4.10;;;;;;;6.66;100.00;100702.22;5042169;28;20048;-48
2022/10/14 01:13:49;;;;;;;7.40;3.67;;;;;;;6.63;100.00;100703.38;5042479;28;20033;-46
2022/10/14 01:16:30;;;;;;;3.78;3.28;;;;;;;6.63;100.00;100695.47;5039711;28;20508;-45
2022/10/14 01:19:17;;;;;;;11.20;3.47;;;;;;;6.63;100.00;100692.81;5048528;28;20045;-47
2022/10/14 01:21:52;;;;;;;3.22;2.17;;;;;;;6.59;100.00;100691.53;5035134;28;20659;-46
2022/10/14 01:24:27;;;;;;;7.30;3.42;;;;;;;6.59;100.00;100688.06;5041595;28;20081;-48
2022/10/14 01:27:16;;;;;;;4.70;1.98;;;;;;;6.57;100.00;100693.47;5032357;28;20117;-50
2022/10/14 01:29:59;;;;;;;6.80;2.95;;;;;;;6.54;100.00;100685.91;5038270;28;20099;-48
2022/10/14 01:32:38;;;;;;;4.57;2.20;;;;;;;6.56;100.00;100686.56;5037524;28;20041;-49
2022/10/14 01:35:17;;;;;;;3.95;2.30;;;;;;;6.54;100.00;100683.25;5033705;28;20087;-47
2022/10/14 01:37:58;;;;;;;5.40;2.50;;;;;;;6.49;100.00;100675.00;5033772;28;20037;-47
2022/10/14 01:40:40;;;;;;;8.30;3.53;;;;;;;6.43;100.00;100665.09;5038590;28;20390;-48
2022/10/14 01:43:06;;;;;;;;;;;;;;;6.39;100.00;100667.22;5035311;28;20128;-47
2022/10/14 01:45:35;;;;;;;4.93;2.90;;;;;;;6.34;100.00;100672.16;5034233;28;19925;-49
2022/10/14 01:48:03;;;;;;;5.18;1.73;;;;;;;6.35;100.00;100668.56;5033972;28;20043;-46
2022/10/14 01:50:30;;;;;;;8.88;2.67;;;;;;;6.35;100.00;100665.91;5037987;28;20036;-49
2022/10/14 01:53:08;;;;;;;9.18;2.42;;;;;;;6.35;100.00;100671.19;5038275;28;20386;-50
2022/10/14 01:55:40;;;;;;;8.10;2.33;;;;;;;6.37;100.00;100668.38;5045423;28;20029;-47
2022/10/14 01:58:09;;;;;;;7.13;4.70;;;;;;;6.37;100.00;100663.13;5041741;28;20029;-48
2022/10/14 02:00:35;;;;;;;11.00;3.78;;;;;;;6.38;100.00;100652.44;5036060;28;20167;-48
2022/10/14 02:03:01;;;;;;;4.20;2.20;;;;;;;6.41;100.00;100659.19;5034949;28;20112;-49
2022/10/14 02:05:35;;;;;;;7.85;2.03;;;;;;;6.43;100.00;100650.16;5039727;28;20113;-46
2022/10/14 02:08:29;;;;;;;3.45;2.08;;;;;;;6.45;100.00;100642.88;5046443;28;20020;-46
2022/10/14 02:10:54;;;;;;;6.85;2.97;;;;;;;6.46;100.00;100643.72;5038529;28;20037;-46
2022/10/14 02:13:37;;;;;;;4.35;2.55;;;;;;;6.53;100.00;100649.97;5039283;28;20335;-46
2022/10/14 02:16:18;;;;;;;7.30;2.85;;;;;;;6.51;100.00;100654.63;5039830;28;20025;-46
2022/10/14 02:18:59;;;;;;;6.28;3.00;;;;;;;6.51;100.00;100655.44;5035642;28;20548;-46
2022/10/14 02:21:27;;;;;;;5.05;2.67;;;;;;;6.49;100.00;100646.84;5034276;28;20033;-46
2022/10/14 02:24:03;;;;;;;6.55;2.88;;;;;;;6.48;100.00;100652.28;5038828;28;20094;-46
2022/10/14 02:26:30;;;;;;;8.23;3.05;;;;;;;6.43;100.00;100644.03;5037785;28;20033;-46
2022/10/14 02:28:57;;;;;;;5.18;2.10;;;;;;;6.39;100.00;100637.44;5033775;28;20056;-45
2022/10/14 02:31:26;;;;;;;5.47;2.55;;;;;;;6.36;100.00;100633.31;5031752;28;20089;-46
2022/10/14 02:33:57;;;;;;;3.92;1.50;;;;;;;6.37;100.00;100628.88;5041676;28;20433;-47
2022/10/14 02:36:25;;;;;;;4.07;2.28;;;;;;;6.36;100.00;100627.25;5031391;28;20037;-46
2022/10/14 02:38:53;;;;;;;7.57;3.53;;;;;;;6.36;100.00;100617.53;5032957;28;20407;-46
2022/10/14 02:41:23;;;;;;;6.35;2.20;;;;;;;6.37;100.00;100618.34;5035578;28;20036;-46
2022/10/14 02:43:49;;;;;;;5.75;2.80;;;;;;;6.38;100.00;100620.00;5035494;28;20021;-48
2022/10/14 02:46:18;;;;;;;4.60;2.03;;;;;;;6.37;100.00;100620.97;5038564;28;20039;-47
2022/10/14 02:48:44;;;;;;;3.78;2.17;;;;;;;6.36;100.00;100609.63;5036811;28;20048;-48
2022/10/14 02:51:09;;;;;;;5.88;2.03;;;;;;;6.36;100.00;100609.63;5041334;28;20477;-49
2022/10/14 02:53:35;;;;;;;4.70;1.73;;;;;;;6.37;100.00;100607.81;5040436;28;20107;-48
2022/10/14 02:56:00;;;;;;;4.13;2.20;;;;;;;6.38;100.00;100597.13;5034836;28;20053;-48
2022/10/14 02:58:25;;;;;;;5.40;1.73;;;;;;;6.37;100.00;100592.00;5038887;28;20035;-47
2022/10/14 03:00:51;;;;;;;6.45;1.92;;;;;;;6.38;100.00;100583.13;5035934;28;20029;-49
2022/10/14 03:03:17;;;;;;;1.85;1.63;;;;;;;6.39;100.00;100579.50;5038899;28;20056;-50
2022/10/14 03:05:42;;;;;;;3.33;2.10;;;;;;;6.39;100.00;100571.59;5035824;28;20447;-50
2022/10/14 03:08:07;;;;;;;2.83;2.03;;;;;;;6.40;100.00;100576.72;5035530;28;20067;-48
2022/10/14 03:10:33;;;;;;;3.28;1.77;;;;;;;6.41;100.00;100572.28;5036225;28;20160;-49
2022/10/14 03:12:58;;;;;;;3.30;1.70;;;;;;;6.43;100.00;100567.63;5038224;28;20098;-45
2022/10/14 03:15:23;;;;;;;12.35;2.47;;;;;;;6.46;100.00;100576.06;5030279;28;20033;-46
2022/10/14 03:17:49;;;;;;;5.38;1.73;;;;;;;6.46;100.00;100573.44;5039699;28;20029;-47
2022/10/14 03:20:14;;;;;;;2.67;2.47;;;;;;;6.44;100.00;100564.84;5036910;28;20061;-46
2022/10/14 03:22:40;;;;;;;3.92;2.53;;;;;;;6.44;100.00;100556.13;5028801;28;20033;-47
2022/10/14 03:25:05;;;;;;;4.88;2.38;;;;;;;6.43;100.00;100557.97;5032271;28;20044;-46
2022/10/14 03:27:31;;;;;;;2.53;1.75;;;;;;;6.46;100.00;100565.53;5035270;28;20375;-49
2022/10/14 03:29:56;;;;;;;6.00;2.40;;;;;;;6.48;100.00;100560.06;5043799;28;20018;-47
2022/10/14 03:32:22;;;;;;;4.10;1.90;;;;;;;6.51;100.00;100559.78;5045704;28;20029;-48
2022/10/14 03:34:47;;;;;;;2.78;1.73;;;;;;;6.50;100.00;100558.13;5046012;28;20482;-50
2022/10/14 03:37:12;;;;;;;4.72;1.80;;;;;;;6.47;100.00;100546.09;5048405;28;20104;-49
2022/10/14 03:39:38;;;;;;;3.97;2.00;;;;;;;6.41;100.00;100540.66;5040303;28;20048;-46
2022/10/14 03:42:03;;;;;;;6.30;1.70;;;;;;;6.39;100.00;100538.19;5035800;28;20067;-48
2022/10/14 03:44:28;;;;;;;2.00;1.85;;;;;;;6.41;100.00;100530.94;5041172;28;20400;-46
2022/10/14 03:46:54;;;;;;;2.88;1.38;;;;;;;6.48;100.00;100523.19;5044356;28;20454;-47
2022/10/14 03:49:19;;;;;;;5.05;2.85;;;;;;;6.50;100.00;100521.22;5042805;28;20038;-46
2022/10/14 03:51:44;;;;;;;1.50;1.30;;;;;;;6.50;100.00;100518.59;5036788;28;20037;-47
2022/10/14 03:54:10;;;;;;;5.00;2.05;;;;;;;6.47;100.00;100505.75;5041129;28;20156;-48
2022/10/14 03:56:35;;;;;;;3.53;1.75;;;;;;;6.51;100.00;100499.19;5045993;28;20052;-49
2022/10/14 03:59:00;;;;;;;2.20;1.70;;;;;;;6.55;100.00;100497.84;5034829;28;20084;-46
2022/10/14 04:01:26;;;;;;;1.92;1.13;;;;;;;6.55;100.00;100489.97;5043963;28;20482;-48
2022/10/14 04:03:51;;;;;;;7.50;3.30;;;;;;;6.55;100.00;100489.97;5047457;28;20032;-49
2022/10/14 04:06:17;;;;;;;3.70;1.95;;;;;;;6.53;100.00;100479.59;5041080;28;20040;-50
2022/10/14 04:08:42;;;;;;;5.50;2.17;;;;;;;6.53;100.00;100486.66;5041650;28;20040;-47
2022/10/14 04:11:08;;;;;;;6.78;1.92;;;;;;;6.60;100.00;100486.84;5042067;28;20029;-51
2022/10/14 04:13:35;;;;;;;6.53;2.45;;;;;;;6.56;100.00;100491.63;5035673;28;20049;-48
2022/10/14 04:16:06;;;;;;;5.28;1.80;;;;;;;6.51;100.00;100501.81;5042903;28;20099;-46
2022/10/14 04:18:32;;;;;;;4.30;2.00;;;;;;;6.52;100.00;100495.56;5041813;28;20033;-49
2022/10/14 04:21:09;;;;;;;7.30;1.85;;;;;;;6.49;100.00;100495.88;5036560;28;20872;-50
2022/10/14 04:23:35;;;;;;;5.25;1.35;;;;;;;6.48;100.00;100504.75;5040517;28;20487;-49
2022/10/14 04:26:05;;;;;;;7.78;2.55;;;;;;;6.47;100.00;100505.75;5040854;28;20079;-46
2022/10/14 04:28:32;;;;;;;8.77;1.92;;;;;;;6.44;100.00;100493.75;5042713;28;20822;-46
2022/10/14 04:30:57;;;;;;;3.13;1.13;;;;;;;6.44;100.00;100492.94;5042520;28;20029;-48
2022/10/14 04:33:23;;;;;;;4.30;1.30;;;;;;;6.45;100.00;100486.66;5041254;28;20144;-46
2022/10/14 04:35:48;;;;;;;1.92;1.23;;;;;;;6.52;100.00;100492.94;5041406;28;20117;-46
2022/10/14 04:38:13;;;;;;;3.08;1.92;;;;;;;6.56;100.00;100483.72;5039318;28;20389;-46
2022/10/14 04:40:39;;;;;;;6.25;1.42;;;;;;;6.59;100.00;100480.75;5045271;28;20466;-46
2022/10/14 04:43:04;;;;;;;5.00;2.33;;;;;;;6.59;100.00;100488.66;5043479;28;20426;-48
2022/10/14 04:45:31;;;;;;;11.60;2.58;;;;;;;6.61;100.00;100480.56;5040827;28;20029;-46
2022/10/14 04:47:56;;;;;;;5.28;1.95;;;;;;;6.61;100.00;100491.09;5042932;28;20026;-49
2022/10/14 04:50:22;;;;;;;7.22;1.73;;;;;;;6.60;100.00;100487.66;5042440;28;20036;-47
2022/10/14 04:52:47;;;;;;;5.25;1.63;;;;;;;6.62;100.00;100484.88;5046889;28;20389;-48
2022/10/14 04:55:12;;;;;;;1.92;1.30;;;;;;;6.62;100.00;100474.31;5049074;28;20031;-48
2022/10/14 04:57:42;;;;;;;3.50;1.95;;;;;;;6.62;100.00;100469.06;5046701;28;20504;-47
2022/10/14 05:00:10;;;;;;;2.47;1.25;;;;;;;6.63;100.00;100471.50;5046104;28;20029;-46
2022/10/14 05:02:35;;;;;;;2.65;1.80;;;;;;;6.64;100.00;100470.53;5040534;28;20024;-49
2022/10/14 05:05:01;;;;;;;4.47;1.77;;;;;;;6.66;100.00;100460.66;5043555;28;20032;-46
2022/10/14 05:07:26;;;;;;;5.40;1.45;;;;;;;6.67;100.00;100462.28;5033140;28;20533;-47
2022/10/14 05:09:52;;;;;;;5.65;1.05;;;;;;;6.66;100.00;100449.28;5035421;28;20037;-48
2022/10/14 05:12:17;;;;;;;1.05;0.80;;;;;;;6.64;100.00;100432.84;5044825;28;20041;-49
2022/10/14 05:14:42;;;;;;;3.83;1.48;;;;;;;6.63;100.00;100442.53;5043767;28;20126;-49
2022/10/14 05:17:08;;;;;;;4.72;1.80;;;;;;;6.63;100.00;100454.88;5037459;28;20080;-46
2022/10/14 05:19:33;;;;;;;5.82;1.63;;;;;;;6.63;100.00;100460.97;5037074;28;20132;-49
2022/10/14 05:21:58;;;;;;;1.95;1.65;;;;;;;6.62;100.00;100464.59;5047482;28;20025;-47
2022/10/14 05:24:24;;;;;;;4.75;2.40;;;;;;;6.55;100.00;100447.81;5035588;28;20036;-49
2022/10/14 05:26:50;;;;;;;5.10;1.67;;;;;;;6.48;100.00;100452.09;5037484;28;20454;-48
2022/10/14 05:29:15;;;;;;;3.63;1.48;;;;;;;6.45;100.00;100447.97;5045263;28;20432;-48
2022/10/14 05:31:40;;;;;;;5.03;2.15;;;;;;;6.46;100.00;100438.28;5036137;28;20195;-48
2022/10/14 05:34:06;;;;;;;5.32;1.08;;;;;;;6.45;100.00;100436.63;5041557;28;20026;-46
2022/10/14 05:36:31;;;;;;;4.15;3.22;;;;;;;6.47;100.00;100432.81;5041261;28;20034;-46
2022/10/14 05:38:57;;;;;;;7.43;2.22;;;;;;;6.48;100.00;100436.28;5039050;28;20039;-45
2022/10/14 05:41:25;;;;;;;5.00;2.60;;;;;;;6.48;100.00;100428.38;5047462;28;20028;-45
2022/10/14 05:43:50;;;;;;;3.13;1.42;;;;;;;6.46;100.00;100436.47;5037898;28;20044;-45
2022/10/14 05:46:16;;;;;;;3.63;1.27;;;;;;;6.47;100.00;100430.19;5037327;28;20025;-45
2022/10/14 05:48:42;;;;;;;6.25;1.70;;;;;;;6.49;100.00;100432.69;5036972;28;20033;-45
2022/10/14 05:51:07;;;;;;;6.63;2.47;;;;;;;6.52;100.00;100433.16;5036550;28;20048;-46
2022/10/14 05:53:33;;;;;;;3.17;2.08;;;;;;;6.52;100.00;100435.78;5037884;28;20470;-45
2022/10/14 05:56:08;;;;;;;3.45;1.55;;;;;;;6.55;100.00;100437.28;5038134;28;20029;-47
2022/10/14 05:58:33;;;;;;;4.72;1.83;;;;;;;6.54;100.00;100425.91;5031341;28;20029;-45
2022/10/14 06:01:00;;;;;;;4.43;1.55;;;;;;;6.57;100.00;100423.94;5032402;28;20028;-46
2022/10/14 06:03:26;;;;;;;3.75;3.00;;;;;;;6.56;100.00;100417.84;5033649;28;20036;-45
2022/10/14 06:05:52;;;;;;;5.10;2.03;;;;;;;6.55;100.00;100408.28;5033412;28;20029;-47
2022/10/14 06:08:17;;;;;;;4.43;1.52;;;;;;;6.57;100.00;100418.69;5033760;28;20029;-46
2022/10/14 06:10:42;;;;;;;5.57;1.42;;;;;;;6.58;100.00;100420.31;5034812;28;20040;-44
2022/10/14 06:13:08;;;;;;;6.07;1.52;;;;;;;6.58;100.00;100431.66;5036183;28;20552;-46
2022/10/14 06:15:34;;;;;;;7.05;2.92;;;;;;;6.59;100.00;100428.06;5033387;28;20048;-45
2022/10/14 06:17:59;;;;;;;6.53;2.42;;;;;;;6.62;100.00;100426.91;5039593;28;20029;-46
2022/10/14 06:20:25;;;;;;;3.75;1.52;;;;;;;6.65;100.00;100426.56;5034036;28;20055;-50
2022/10/14 06:22:50;;;;;;;3.88;2.17;;;;;;;6.69;100.00;100425.25;5033460;28;20029;-50
2022/10/14 06:25:16;;;;;;;4.50;2.45;;;;;;;6.72;100.00;100425.72;5039948;28;20040;-47
2022/10/14 06:27:41;;;;;;;3.22;0.68;;;;;;;6.75;100.00;100424.56;5036724;28;20457;-51
2022/10/14 06:30:07;;;;;;;4.15;1.33;;;;;;;6.76;100.00;100429.69;5040914;28;20060;-51
2022/10/14 06:32:33;;;;;;;2.22;1.23;;;;;;;6.78;100.00;100424.22;5039681;28;20054;-45
2022/10/14 06:34:59;;;;;;;2.47;2.15;;;;;;;6.81;100.00;100421.25;5041098;28;20021;-49
2022/10/14 06:37:24;;;;;;;4.70;2.10;;;;;;;6.87;100.00;100419.78;5044277;28;20071;-46
2022/10/14 06:39:49;;;;;;;4.43;2.50;;;;;;;6.92;100.00;100415.66;5038917;28;20410;-45
2022/10/14 06:42:15;;;;;;;2.72;1.35;;;;;;;6.96;100.00;100411.66;5043415;28;20465;-45
2022/10/14 06:44:40;;;;;;;2.72;1.30;;;;;;;6.99;100.00;100407.88;5038440;28;20378;-45
2022/10/14 06:47:07;;;;;;;8.25;2.72;;;;;;;6.98;100.00;100411.50;5032602;28;20029;-45
2022/10/14 06:49:32;;;;;;;4.05;2.15;;;;;;;6.96;100.00;100413.50;5035457;28;20029;-47
2022/10/14 06:51:57;;;;;;;8.70;1.50;;;;;;;6.97;100.00;100415.16;5035298;28;20044;-45
2022/10/14 06:54:23;;;;;;;3.80;1.50;;;;;;;6.99;100.00;100413.16;5031214;28;20427;-46
2022/10/14 06:56:48;;;;;;;3.35;1.85;;;;;;;7.02;100.00;100412.81;5037341;28;20030;-51
2022/10/14 06:59:14;;;;;;;2.50;1.08;;;;;;;7.10;100.00;100414.59;5025482;28;20067;-48
2022/10/14 07:01:39;;;;;;;2.47;1.13;;;;;;;7.15;100.00;100418.38;5025819;28;20028;-47
2022/10/14 07:04:04;;;;;;;4.63;2.20;;;;;;;7.24;100.00;100421.00;5017479;28;20036;-47
2022/10/14 07:06:30;;;;;;;8.25;2.88;;;;;;;7.31;100.00;100422.78;5024328;28;20498;-46
2022/10/14 07:08:56;;;;;;;3.20;1.77;;;;;;;7.38;100.00;100423.75;5024718;28;20499;-52
2022/10/14 07:11:21;;;;;;;4.30;1.60;;;;;;;7.47;100.00;100432.44;5028463;28;20112;-50
2022/10/14 07:13:47;;;;;;;4.85;2.33;;;;;;;7.56;100.00;100425.28;5031969;28;20079;-47
2022/10/14 07:16:12;;;;;;;4.40;2.63;;;;;;;7.61;100.00;100422.97;5034961;28;20034;-46
2022/10/14 07:18:38;;;;;;;5.10;1.48;;;;;;;7.67;100.00;100421.44;5034617;28;20319;-48
2022/10/14 07:21:04;;;;;;;3.67;2.30;;;;;;;7.75;100.00;100408.22;5032351;28;20049;-49
2022/10/14 07:23:30;;;;;;;4.95;2.03;;;;;;;7.82;100.00;100403.88;5043828;28;20090;-49
2022/10/14 07:25:57;;;;;;;6.40;3.10;;;;;;;7.86;100.00;100421.81;5033671;28;20364;-48
2022/10/14 07:28:23;;;;;;;3.00;2.38;;;;;;;7.91;100.00;100402.00;5048412;28;20075;-49
2022/10/14 07:31:00;;;;;;;4.07;2.30;;;;;;;7.99;100.00;100402.75;5037239;28;20026;-50
2022/10/14 07:33:25;;;;;;;6.90;3.05;;;;;;;8.03;100.00;100408.53;5046272;28;20017;-50
2022/10/14 07:35:51;;;;;;;3.38;1.95;;;;;;;8.08;100.00;100406.19;5041575;28;20028;-52
2022/10/14 07:38:17;;;;;;;3.65;3.35;;;;;;;8.15;100.00;100408.94;5042542;28;20025;-49
2022/10/14 07:40:42;;;;;;;2.92;2.08;;;;;;;8.19;100.00;100412.88;5047437;28;20053;-48
2022/10/14 07:43:08;;;;;;;3.60;2.20;;;;;;;8.22;100.00;100415.97;5046780;28;20025;-47
2022/10/14 07:45:35;;;;;;;3.97;3.10;;;;;;;8.26;100.00;100425.19;5046244;28;20029;-47
2022/10/14 07:48:01;;;;;;;6.38;2.72;;;;;;;8.34;100.00;100418.19;5039077;28;20030;-45
2022/10/14 07:50:26;;;;;;;8.45;3.28;;;;;;;8.40;100.00;100422.81;5037616;28;20021;-53
2022/10/14 07:52:52;;;;;;;7.30;3.97;;;;;;;8.47;100.00;100423.75;5044610;28;20022;-48
2022/10/14 07:55:17;;;;;;;4.68;2.25;;;;;;;8.54;100.00;100431.75;5038177;28;20102;-50
2022/10/14 07:57:43;;;;;;;5.03;3.72;;;;;;;8.58;100.00;100427.75;5052561;28;20021;-49
2022/10/14 08:00:08;;;;;;;7.07;4.85;;;;;;;8.63;100.00;100434.16;5044042;28;20026;-48
2022/10/14 08:02:34;;;;;;;8.95;3.67;;;;;;;8.68;100.00;100445.00;5045323;28;20292;-46
2022/10/14 08:05:00;;;;;;;6.00;3.17;;;;;;;8.74;100.00;100446.94;5046138;28;20075;-46
2022/10/14 08:07:26;;;;;;;4.85;2.97;;;;;;;8.83;100.00;100452.13;5047694;28;20033;-48
2022/10/14 08:09:54;;;;;;;8.73;4.05;;;;;;;8.92;100.00;100451.88;5040569;28;20032;-45
2022/10/14 08:12:20;;;;;;;5.20;2.63;;;;;;;8.95;100.00;100462.09;5049243;28;20419;-46
2022/10/14 08:14:45;;;;;;;5.95;3.25;;;;;;;9.05;100.00;100453.91;5051670;28;20027;-49
2022/10/14 08:17:11;;;;;;;7.78;3.95;;;;;;;9.16;100.00;100449.97;5038717;28;20478;-47
2022/10/14 08:19:36;;;;;;;10.27;4.10;;;;;;;9.33;100.00;100456.72;5050752;28;20120;-47
2022/10/14 08:22:01;;;;;;;6.22;4.90;;;;;;;9.47;100.00;100462.19;5046303;28;20025;-46
2022/10/14 08:24:27;;;;;;;11.40;4.25;;;;;;;9.59;100.00;100456.25;5035314;28;20030;-48
2022/10/14 08:26:57;;;;;;;6.80;4.53;;;;;;;9.70;100.00;100460.22;5044644;28;20385;-49
2022/10/14 08:29:23;;;;;;;7.57;4.95;;;;;;;9.80;100.00;100447.53;5036053;28;20410;-47
2022/10/14 08:31:51;;;;;;;6.30;3.78;;;;;;;9.89;100.00;100453.53;5038887;28;20056;-50
2022/10/14 08:34:19;;;;;;;12.10;3.95;;;;;;;9.93;100.00;100452.16;5045036;28;20508;-46
2022/10/14 08:36:49;;;;;;;9.02;4.47;;;;;;;9.97;100.00;100452.59;5042695;28;20025;-46
2022/10/14 08:39:17;;;;;;;11.65;5.55;;;;;;;10.03;100.00;100446.56;5041848;28;20024;-47
2022/10/14 08:41:52;;;;;;;10.82;4.57;;;;;;;10.07;100.00;100441.69;5047439;28;20433;-46
2022/10/14 08:44:23;;;;;;;7.88;4.65;;;;;;;10.16;100.00;100437.91;5038062;28;20036;-48
2022/10/14 08:46:56;;;;;;;11.35;4.93;;;;;;;10.23;100.00;100431.66;5034862;28;20029;-51
2022/10/14 08:49:43;;;;;;;4.88;3.33;;;;;;;10.32;100.00;100440.31;5049961;28;20063;-46
2022/10/14 08:52:17;;;;;;;8.15;4.57;;;;;;;10.36;100.00;100435.50;5032442;28;20106;-46
2022/10/14 08:54:48;;;;;;;13.57;5.43;;;;;;;10.41;100.00;100428.59;5035726;28;20094;-48
2022/10/14 08:57:24;;;;;;;6.65;3.92;;;;;;;10.47;100.00;100434.97;5046974;28;20029;-48
2022/10/14 08:59:50;;;;;;;7.88;3.55;;;;;;;10.49;100.00;100435.59;5039952;28;20048;-52
2022/10/14 09:02:33;;;;;;;7.35;3.88;;;;;;;10.54;100.00;100433.19;5047254;28;20474;-47
2022/10/14 09:05:01;;;;;;;8.20;4.07;;;;;;;10.56;100.00;100435.63;5045944;28;20040;-47
2022/10/14 09:07:27;;;;;;;9.02;4.60;;;;;;;10.60;100.00;100437.72;5042336;28;20116;-46
2022/10/14 09:10:02;;;;;;;8.60;3.72;;;;;;;10.71;100.00;100436.38;5042858;28;20030;-46
2022/10/14 09:12:32;;;;;;;6.05;4.45;;;;;;;10.81;100.00;100422.78;5040589;28;20033;-49
2022/10/14 09:15:06;;;;;;;9.38;3.63;;;;;;;10.89;100.00;100420.81;5042707;28;20361;-48
2022/10/14 09:17:38;;;;;;;6.70;4.13;;;;;;;10.99;100.00;100417.78;5045496;28;20163;-46
2022/10/14 09:20:07;;;;;;;10.02;3.88;;;;;;;11.12;100.00;100406.41;5039668;28;20026;-46
2022/10/14 09:22:33;;;;;;;9.35;3.58;;;;;;;11.23;100.00;100399.72;5043098;28;20025;-50
2022/10/14 09:25:00;;;;;;;5.20;3.35;;;;;;;11.26;100.00;100405.50;5039460;28;20029;-47
2022/10/14 09:27:28;;;;;;;6.85;3.40;;;;;;;11.28;100.00;100399.97;5036751;28;20049;-48
2022/10/14 09:30:00;;;;;;;4.88;2.88;;;;;;;11.30;100.00;100401.41;5035060;28;20136;-48
2022/10/14 09:32:38;;;;;;;10.07;4.65;;;;;;;11.32;100.00;100395.91;5050264;28;20094;-46
2022/10/14 09:35:13;;;;;;;4.60;3.17;;;;;;;11.36;100.00;100389.19;5035006;28;20045;-49
2022/10/14 09:37:38;;;;;;;12.05;3.60;;;;;;;11.40;100.00;100398.38;5040303;28;20483;-48
2022/10/14 09:40:13;;;;;;;4.07;3.13;;;;;;;11.47;100.00;100398.44;5038205;28;20031;-52
2022/10/14 09:42:38;;;;;;;8.20;3.63;;;;;;;11.46;100.00;100396.78;5037615;28;20037;-49
2022/10/14 09:45:21;;;;;;;4.80;3.20;;;;;;;11.52;100.00;100393.34;5045213;28;20076;-46
2022/10/14 09:48:02;;;;;;;9.43;3.50;;;;;;;11.55;100.00;100404.38;5041484;28;20025;-48
2022/10/14 09:50:39;;;;;;;6.63;3.75;;;;;;;11.58;100.00;100401.31;5041026;28;20036;-48
2022/10/14 09:53:13;;;;;;;9.88;3.15;;;;;;;11.62;100.00;100399.09;5032226;28;20025;-47
2022/10/14 09:55:47;;;;;;;8.05;3.08;;;;;;;11.64;100.00;100394.41;5031769;28;20036;-47
2022/10/14 09:58:16;;;;;;;3.90;3.08;;;;;;;11.69;100.00;100399.09;5038229;28;20394;-50
2022/10/14 10:00:43;;;;;;;5.13;3.08;;;;;;;11.72;100.00;100388.06;5045693;28;20056;-50
2022/10/14 10:03:24;;;;;;;4.70;3.88;;;;;;;11.80;100.00;100379.94;5049429;28;20025;-48
2022/10/14 10:06:03;;;;;;;4.30;3.70;;;;;;;11.87;100.00;100372.81;5039321;28;20082;-49
2022/10/14 10:08:29;;;;;;;6.72;2.67;;;;;;;11.88;100.00;100369.16;5039722;28;20421;-49
2022/10/14 10:11:09;;;;;;;12.82;3.25;;;;;;;11.92;100.00;100365.03;5050743;28;20021;-47
2022/10/14 10:13:45;;;;;;;4.53;2.53;;;;;;;11.97;100.00;100354.63;5035682;28;20238;-49
2022/10/14 10:16:24;;;;;;;6.63;2.67;;;;;;;12.06;100.00;100333.19;5043467;28;20120;-50
2022/10/14 10:18:51;;;;;;;9.05;2.67;;;;;;;12.14;100.00;100340.97;5043265;28;20048;-46
2022/10/14 10:21:26;;;;;;;8.48;4.40;;;;;;;12.24;100.00;100338.72;5038018;28;20479;-49
2022/10/14 10:23:54;;;;;;;5.47;3.60;;;;;;;12.36;100.00;100336.22;5037646;28;20040;-47
2022/10/14 10:26:28;;;;;;;7.93;3.78;;;;;;;12.39;100.00;100333.16;5047074;28;20033;-47
2022/10/14 10:28:56;;;;;;;6.32;4.03;;;;;;;12.47;100.00;100337.44;5036961;28;20474;-47
2022/10/14 10:31:47;;;;;;;8.95;3.35;;;;;;;12.53;100.00;100336.63;5039270;28;20025;-51
2022/10/14 10:34:34;;;;;;;5.80;2.83;;;;;;;12.65;100.00;100337.63;5038241;28;20051;-46
2022/10/14 10:37:30;;;;;;;4.28;3.10;;;;;;;12.75;100.00;100332.72;5046671;28;20025;-47
2022/10/14 10:40:31;;;;;;;6.05;3.72;;;;;;;12.83;100.00;100332.47;5036304;28;20076;-48
2022/10/14 10:43:19;;;;;;;7.85;2.33;;;;;;;12.83;100.00;100331.63;5047361;28;20035;-53
2022/10/14 10:45:53;;;;;;;7.20;2.83;;;;;;;12.91;100.00;100326.09;5042838;28;20479;-47
2022/10/14 10:48:39;;;;;;;4.30;2.08;;;;;;;12.97;100.00;100329.78;5043115;28;20056;-47
2022/10/14 10:51:14;;;;;;;7.60;2.75;;;;;;;12.98;100.00;100323.41;5042451;28;20084;-51
2022/10/14 10:53:59;;;;;;;3.85;2.67;;;;;;;13.03;100.00;100326.25;5037401;28;20123;-50
2022/10/14 10:56:37;;;;;;;4.43;2.33;;;;;;;13.03;100.00;100331.56;5039210;28;20124;-49
2022/10/14 10:59:38;;;;;;;12.27;3.45;;;;;;;13.01;100.00;100320.31;5039980;28;20478;-50
2022/10/14 11:02:15;;;;;;;7.18;2.78;;;;;;;13.12;100.00;100308.22;5024103;28;20557;-50
2022/10/14 11:04:54;;;;;;;12.98;3.17;;;;;;;13.33;100.00;100312.44;5034445;28;20148;-50
2022/10/14 11:13:52;;;;;;;5.82;2.38;;;;;;;13.43;100.00;100294.16;5038688;28;20536;-50
2022/10/14 11:16:53;;;;;;;3.65;2.03;;;;;;;13.40;100.00;100281.25;5040961;28;20051;-47
2022/10/14 11:19:25;;;;;;;4.07;2.35;;;;;;;13.49;100.00;100282.63;5042225;28;20401;-53
2022/10/14 11:21:51;;;;;;;3.33;1.98;;;;;;;13.57;100.00;100278.91;5041998;28;20041;-51
2022/10/14 11:24:25;;;;;;;3.85;2.10;;;;;;;13.63;100.00;100270.88;5035222;28;20022;-52
2022/10/14 11:27:40;;;;;;;5.93;2.80;;;;;;;13.66;100.00;100265.09;5046975;28;20395;-49
2022/10/14 11:30:17;;;;;;;5.28;2.15;;;;;;;13.72;100.00;100255.44;5027599;28;20037;-51
2022/10/14 11:32:48;;;;;;;9.38;2.60;;;;;;;13.87;100.00;100260.44;5045704;28;20402;-48
2022/10/14 11:35:44;;;;;;;6.40;3.25;;;;;;;13.96;100.00;100243.13;5038006;28;20072;-48
2022/10/14 11:38:39;;;;;;;6.95;3.47;;;;;;;14.08;100.00;100244.03;5035168;28;20028;-47
2022/10/14 11:41:19;;;;;;;3.20;2.42;;;;;;;14.13;100.00;100248.72;5050062;28;20029;-52